Wyoming, Canada
Current Conditions -  °F | °C
As of 4:00 AM on Monday 20 Oct 2014 (Local Time) from CYZR Reporting Station
Overcast Overcast  
Wind Chill: 42°   Ceiling: 8000
Heat Index: 46°   Visibility: 9mi
Dew Point: 39°   Wind: 9mph
Humidity: 76%   Direction: 190°S
Pressure: 29.89"   Gusts: NA
Location:  42.95°N, 82.12°W
Report Text: CYZR 200800Z AUTO 19008KT 9SM OVC080 08/04 A2989 RMK SLP125
Loading
Personal Weather Stations






























Interactive Weather Map
Tropical Storm Tracking
New forecast layout! Learn more

10-Day Weather Forecast

Advertisements
Track Severe Weather on mobile